createdAt,value
2023-02-01T00:01:29.062Z,13.07
2023-02-01T00:03:57.874Z,12.63
2023-02-01T00:06:26.370Z,11.87
2023-02-01T00:08:55.902Z,10.73
2023-02-01T00:11:24.788Z,12.27
2023-02-01T00:13:54.715Z,10.57
2023-02-01T00:16:23.731Z,11.53
2023-02-01T00:18:53.029Z,12.70
2023-02-01T00:21:22.290Z,14.57
2023-02-01T00:23:50.773Z,12.97
2023-02-01T00:26:20.173Z,12.20
2023-02-01T00:28:48.722Z,16.80
2023-02-01T00:31:18.585Z,13.37
2023-02-01T00:33:49.351Z,11.73
2023-02-01T00:36:18.078Z,13.43
2023-02-01T00:38:46.497Z,14.03
2023-02-01T00:41:15.711Z,13.77
2023-02-01T00:43:44.441Z,12.40
2023-02-01T00:46:13.037Z,11.00
2023-02-01T00:48:43.195Z,11.67
2023-02-01T00:51:12.861Z,13.23
2023-02-01T00:53:42.525Z,12.53
2023-02-01T00:56:11.304Z,15.30
2023-02-01T00:58:40.061Z,12.20
2023-02-01T01:01:10.044Z,10.77
2023-02-01T01:03:39.332Z,14.53
2023-02-01T01:06:10.099Z,12.63
2023-02-01T01:08:38.966Z,13.83
2023-02-01T01:11:08.352Z,15.67
2023-02-01T01:13:37.083Z,12.20
2023-02-01T01:16:05.858Z,11.20
2023-02-01T01:18:34.699Z,13.10
2023-02-01T01:21:03.501Z,10.80
2023-02-01T01:23:33.247Z,11.63
2023-02-01T01:26:01.648Z,14.67
2023-02-01T01:28:30.228Z,10.13
2023-02-01T01:30:58.653Z,12.77
2023-02-01T01:33:27.199Z,12.47
2023-02-01T01:35:55.551Z,12.70
2023-02-01T01:38:24.438Z,12.20
2023-02-01T01:40:54.164Z,13.87
2023-02-01T01:43:23.408Z,13.30
2023-02-01T01:45:52.873Z,14.33
2023-02-01T01:48:23.995Z,10.83
2023-02-01T01:50:53.620Z,11.10
2023-02-01T01:53:24.966Z,12.20
2023-02-01T01:55:56.028Z,14.57
2023-02-01T01:58:26.294Z,14.00
2023-02-01T02:00:54.994Z,13.57
2023-02-01T02:03:26.606Z,15.43
2023-02-01T02:05:55.929Z,13.70
2023-02-01T02:08:25.126Z,18.10
2023-02-01T02:11:04.115Z,12.57
2023-02-01T02:13:33.893Z,16.07
2023-02-01T02:16:08.463Z,12.33
2023-02-01T02:18:41.511Z,14.07
2023-02-01T02:21:15.389Z,12.07
2023-02-01T02:23:58.616Z,14.23
2023-02-01T02:26:34.486Z,13.77
2023-02-01T02:29:23.938Z,13.23
2023-02-01T02:32:04.342Z,12.50
2023-02-01T02:34:39.689Z,11.53
2023-02-01T02:37:14.510Z,15.43
2023-02-01T02:39:47.736Z,14.93
2023-02-01T02:42:38.167Z,13.13
2023-02-01T02:45:27.025Z,10.33
2023-02-01T02:47:57.553Z,13.77
2023-02-01T02:50:46.910Z,13.87
2023-02-01T02:53:34.343Z,12.10
2023-02-01T02:56:21.158Z,12.30
2023-02-01T02:59:07.368Z,12.10
2023-02-01T03:01:53.832Z,12.50
2023-02-01T03:04:24.624Z,14.13
2023-02-01T03:06:54.561Z,13.83
2023-02-01T03:09:25.402Z,12.63
2023-02-01T03:12:13.109Z,10.77
2023-02-01T03:14:43.634Z,11.90
2023-02-01T03:17:14.712Z,12.23
2023-02-01T03:19:49.443Z,12.03
2023-02-01T03:22:21.013Z,12.17
2023-02-01T03:24:50.820Z,11.83
2023-02-01T03:27:21.076Z,12.10
2023-02-01T03:29:51.600Z,14.53
2023-02-01T03:32:20.311Z,11.27
2023-02-01T03:34:49.537Z,12.03
2023-02-01T03:37:24.524Z,11.57
2023-02-01T03:39:56.686Z,9.70
2023-02-01T03:42:30.441Z,11.33
2023-02-01T03:45:03.797Z,8.70
2023-02-01T03:47:33.909Z,11.83
2023-02-01T03:50:05.281Z,9.93
2023-02-01T03:52:36.861Z,9.73
2023-02-01T03:55:06.967Z,9.53
2023-02-01T03:57:38.152Z,11.07
2023-02-01T04:00:08.129Z,8.13
2023-02-01T04:02:42.754Z,7.60
2023-02-01T04:05:11.356Z,13.03
2023-02-01T04:07:47.189Z,7.30
2023-02-01T04:10:17.470Z,8.47
2023-02-01T04:12:48.059Z,8.87
2023-02-01T04:15:16.594Z,9.17
2023-02-01T04:17:45.021Z,8.20
2023-02-01T04:20:13.861Z,6.97
2023-02-01T04:22:43.629Z,9.77
2023-02-01T04:25:12.077Z,9.27
2023-02-01T04:27:43.428Z,8.60
2023-02-01T04:30:12.370Z,9.50
2023-02-01T04:32:41.404Z,7.63
2023-02-01T04:35:10.570Z,8.80
2023-02-01T04:37:38.973Z,7.27
2023-02-01T04:40:09.611Z,7.90
2023-02-01T04:42:38.040Z,8.70
2023-02-01T04:45:06.893Z,8.83
2023-02-01T04:47:35.324Z,6.80
2023-02-01T04:50:03.857Z,8.57
2023-02-01T04:52:32.328Z,6.90
2023-02-01T04:55:01.367Z,9.83
2023-02-01T04:57:31.102Z,8.67
2023-02-01T04:59:59.462Z,7.40
2023-02-01T05:02:28.048Z,7.27
2023-02-01T05:04:56.987Z,9.97
2023-02-01T05:07:25.448Z,12.13
2023-02-01T05:09:53.761Z,9.17
2023-02-01T05:12:39.513Z,9.13
2023-02-01T05:15:09.954Z,8.43
2023-02-01T05:17:38.329Z,8.53
2023-02-01T05:20:07.284Z,8.13
2023-02-01T05:22:35.793Z,9.13
2023-02-01T05:25:04.236Z,9.90
2023-02-01T05:27:32.644Z,7.47
2023-02-01T05:30:01.006Z,8.20
2023-02-01T05:32:31.033Z,7.17
2023-02-01T05:34:59.766Z,8.83
2023-02-01T05:37:30.183Z,8.40
2023-02-01T05:39:58.791Z,7.70
2023-02-01T05:42:27.189Z,7.83
2023-02-01T05:44:55.558Z,7.97
2023-02-01T05:47:24.513Z,7.90
2023-02-01T05:49:54.271Z,7.50
2023-02-01T05:52:22.689Z,9.33
2023-02-01T05:54:51.268Z,9.87
2023-02-01T05:57:19.786Z,6.83
2023-02-01T05:59:49.632Z,8.33
2023-02-01T06:02:18.203Z,9.13
2023-02-01T06:04:46.825Z,8.77
2023-02-01T06:07:16.888Z,7.43
2023-02-01T06:09:47.496Z,8.73
2023-02-01T06:12:16.263Z,7.53
2023-02-01T06:14:44.605Z,7.00
2023-02-01T06:17:12.891Z,6.57
2023-02-01T06:19:42.203Z,8.43
2023-02-01T06:22:10.620Z,8.00
2023-02-01T06:24:40.675Z,7.10
2023-02-01T06:27:10.368Z,6.57
2023-02-01T06:29:39.322Z,7.27
2023-02-01T06:32:07.905Z,6.70
2023-02-01T06:34:38.200Z,8.37
2023-02-01T06:37:06.622Z,6.27
2023-02-01T06:39:35.240Z,8.40
2023-02-01T06:42:05.015Z,7.40
2023-02-01T06:44:33.412Z,9.07
2023-02-01T06:47:01.948Z,8.57
2023-02-01T06:49:31.724Z,9.27
2023-02-01T06:52:01.117Z,7.80
2023-02-01T06:54:31.684Z,9.00
2023-02-01T06:57:00.297Z,8.23
2023-02-01T06:59:30.104Z,9.27
2023-02-01T07:01:58.567Z,7.10
2023-02-01T07:04:26.951Z,8.50
2023-02-01T07:06:55.371Z,7.37
2023-02-01T07:09:24.043Z,7.83
2023-02-01T07:11:52.510Z,10.17
2023-02-01T07:14:20.901Z,8.23
2023-02-01T07:16:50.689Z,7.53
2023-02-01T07:19:19.103Z,10.83
2023-02-01T07:21:47.440Z,8.87
2023-02-01T07:24:16.687Z,8.93
2023-02-01T07:26:45.181Z,9.57
2023-02-01T07:29:13.640Z,8.17
2023-02-01T07:31:42.197Z,9.10
2023-02-01T07:34:12.254Z,7.73
2023-02-01T07:36:40.593Z,8.50
2023-02-01T07:39:09.031Z,6.80
2023-02-01T07:41:37.386Z,9.73
2023-02-01T07:44:06.120Z,7.20
2023-02-01T07:46:34.494Z,7.70
2023-02-01T07:49:02.866Z,7.87
2023-02-01T07:51:32.714Z,8.23
2023-02-01T07:54:01.186Z,7.30
2023-02-01T07:56:29.587Z,10.60
2023-02-01T07:58:58.287Z,7.77
2023-02-01T08:01:26.842Z,6.33
2023-02-01T08:03:56.679Z,5.53
2023-02-01T08:06:25.831Z,6.77
2023-02-01T08:08:56.410Z,9.07
2023-02-01T08:11:25.831Z,5.83
2023-02-01T08:13:54.629Z,5.93
2023-02-01T08:16:24.333Z,5.30
2023-02-01T08:18:52.787Z,6.50
2023-02-01T08:21:23.053Z,8.83
2023-02-01T08:23:51.774Z,6.70
2023-02-01T08:26:22.663Z,5.27
2023-02-01T08:28:52.432Z,6.23
2023-02-01T08:31:23.818Z,6.90
2023-02-01T08:33:53.059Z,5.80
2023-02-01T08:36:21.879Z,8.70
2023-02-01T08:38:50.673Z,6.00
2023-02-01T08:41:19.955Z,7.20
2023-02-01T08:43:50.045Z,5.83
2023-02-01T08:46:18.965Z,7.03
2023-02-01T08:48:48.528Z,5.47
2023-02-01T08:51:17.767Z,5.40
2023-02-01T08:53:47.250Z,6.30
2023-02-01T08:56:16.529Z,6.83
2023-02-01T08:58:45.179Z,6.03
2023-02-01T09:01:18.264Z,5.70
2023-02-01T09:03:47.314Z,8.47
2023-02-01T09:06:16.483Z,6.00
2023-02-01T09:08:45.394Z,5.93
2023-02-01T09:11:15.328Z,5.90
2023-02-01T09:13:43.829Z,5.40
2023-02-01T09:16:12.689Z,5.60
2023-02-01T09:18:55.350Z,4.47
2023-02-01T09:21:24.722Z,5.13
2023-02-01T09:23:53.457Z,5.73
2023-02-01T09:26:26.523Z,7.40
2023-02-01T09:28:59.399Z,4.67
2023-02-01T09:31:27.798Z,6.60
2023-02-01T09:33:57.420Z,6.33
2023-02-01T09:36:25.541Z,7.23
2023-02-01T09:38:54.478Z,5.77
2023-02-01T09:41:34.547Z,5.50
2023-02-01T09:44:15.144Z,6.90
2023-02-01T09:46:43.234Z,8.87
2023-02-01T09:49:18.218Z,4.50
2023-02-01T09:51:50.572Z,5.77
2023-02-01T09:54:19.938Z,6.00
2023-02-01T09:56:50.627Z,7.23
2023-02-01T09:59:26.058Z,6.07
2023-02-01T10:01:54.576Z,7.03
2023-02-01T10:04:24.345Z,7.23
2023-02-01T10:06:58.778Z,7.20
2023-02-01T10:09:40.871Z,10.43
2023-02-01T10:12:21.340Z,6.23
2023-02-01T10:14:59.970Z,6.53
2023-02-01T10:17:34.787Z,6.53
2023-02-01T10:20:08.032Z,5.30
2023-02-01T10:23:03.645Z,6.33
2023-02-01T10:25:31.405Z,5.83
2023-02-01T10:28:00.470Z,6.60
2023-02-01T10:30:34.758Z,4.67
2023-02-01T10:33:09.380Z,6.30
2023-02-01T10:35:40.592Z,9.77
2023-02-01T10:38:13.901Z,9.10
2023-02-01T10:40:42.593Z,9.10
2023-02-01T10:43:12.409Z,6.57
2023-02-01T10:45:43.454Z,5.47
2023-02-01T10:48:11.994Z,7.33
2023-02-01T10:50:43.538Z,5.83
2023-02-01T10:53:14.230Z,7.67
2023-02-01T10:55:43.711Z,9.60
2023-02-01T10:58:17.828Z,7.90
2023-02-01T11:00:47.812Z,5.80
2023-02-01T11:03:34.070Z,5.80
2023-02-01T11:06:04.369Z,8.63
2023-02-01T11:08:32.927Z,8.60
2023-02-01T11:11:02.427Z,9.07
2023-02-01T11:13:31.965Z,5.57
2023-02-01T11:16:00.684Z,6.10
2023-02-01T11:18:30.503Z,6.87
2023-02-01T11:20:59.613Z,10.30
2023-02-01T11:23:30.902Z,6.27
2023-02-01T11:26:00.349Z,8.03
2023-02-01T11:28:32.661Z,9.07
2023-02-01T11:31:02.144Z,7.27
2023-02-01T11:33:36.103Z,5.73
2023-02-01T11:36:09.912Z,7.87
2023-02-01T11:38:39.731Z,10.03
2023-02-01T11:41:15.312Z,7.13
2023-02-01T11:43:54.736Z,5.83
2023-02-01T11:46:27.310Z,8.40
2023-02-01T11:48:56.398Z,8.50
2023-02-01T11:51:35.336Z,9.20
2023-02-01T11:54:10.988Z,10.30
2023-02-01T11:56:40.078Z,9.67
2023-02-01T11:59:15.007Z,9.00
2023-02-01T12:01:52.790Z,8.13
2023-02-01T12:04:31.100Z,8.63
2023-02-01T12:06:59.997Z,8.07
2023-02-01T12:09:44.989Z,9.70
2023-02-01T12:12:19.388Z,10.87
2023-02-01T12:14:59.393Z,6.83
2023-02-01T12:17:41.783Z,5.67
2023-02-01T12:20:20.519Z,9.83
2023-02-01T12:22:54.914Z,7.20
2023-02-01T12:25:28.377Z,11.53
2023-02-01T12:28:04.857Z,7.93
2023-02-01T12:30:57.496Z,11.97
2023-02-01T12:33:30.760Z,11.40
2023-02-01T12:36:04.848Z,8.53
2023-02-01T12:38:38.983Z,11.13
2023-02-01T12:41:16.103Z,7.07
2023-02-01T12:43:47.418Z,8.03
2023-02-01T12:46:17.584Z,9.83
2023-02-01T12:48:51.670Z,6.27
2023-02-01T12:51:21.852Z,8.37
2023-02-01T12:53:53.074Z,10.03
2023-02-01T12:56:25.233Z,9.10
2023-02-01T12:58:55.824Z,9.97
2023-02-01T13:01:29.048Z,10.60
2023-02-01T13:04:01.104Z,7.77
2023-02-01T13:06:31.728Z,8.43
2023-02-01T13:09:03.500Z,7.97
2023-02-01T13:11:34.176Z,10.40
2023-02-01T13:14:04.468Z,8.97
2023-02-01T13:16:34.058Z,9.80
2023-02-01T13:19:04.990Z,6.43
2023-02-01T13:21:35.964Z,9.43
2023-02-01T13:24:04.541Z,12.33
2023-02-01T13:26:34.401Z,8.00
2023-02-01T13:29:04.661Z,5.77
2023-02-01T13:31:40.652Z,8.43
2023-02-01T13:34:27.884Z,8.83
2023-02-01T13:37:01.072Z,12.47
2023-02-01T13:39:44.613Z,9.00
2023-02-01T13:42:19.569Z,10.43
2023-02-01T13:44:49.345Z,5.17
2023-02-01T13:47:24.671Z,6.77
2023-02-01T13:49:53.754Z,5.03
2023-02-01T13:52:28.265Z,8.37
2023-02-01T13:55:16.926Z,5.27
2023-02-01T13:57:46.825Z,4.70
2023-02-01T14:00:26.616Z,6.30
2023-02-01T14:03:17.144Z,8.20
2023-02-01T14:06:03.100Z,7.37
2023-02-01T14:08:45.084Z,7.73
2023-02-01T14:11:32.423Z,7.20
2023-02-01T14:14:09.640Z,9.30
2023-02-01T14:16:38.162Z,7.93
2023-02-01T14:19:10.345Z,6.83
2023-02-01T14:21:49.298Z,9.40
2023-02-01T14:24:23.627Z,8.13
2023-02-01T14:26:53.273Z,6.47
2023-02-01T14:29:28.264Z,8.80
2023-02-01T14:32:03.503Z,6.70
2023-02-01T14:34:45.889Z,6.33
2023-02-01T14:37:25.523Z,9.60
2023-02-01T14:39:56.888Z,9.63
2023-02-01T14:42:28.100Z,7.53
2023-02-01T14:45:00.098Z,9.40
2023-02-01T14:47:30.291Z,10.23
2023-02-01T14:50:01.143Z,7.10
2023-02-01T14:52:33.403Z,8.67
2023-02-01T14:55:04.349Z,7.50
2023-02-01T14:57:36.138Z,7.03
2023-02-01T15:00:14.832Z,7.67
2023-02-01T15:02:43.460Z,8.07
2023-02-01T15:05:25.466Z,9.47
2023-02-01T15:07:54.905Z,10.33
2023-02-01T15:10:23.993Z,10.03
2023-02-01T15:12:52.695Z,12.03
2023-02-01T15:15:23.985Z,10.53
2023-02-01T15:17:53.599Z,6.50
2023-02-01T15:20:24.059Z,8.23
2023-02-01T15:22:56.691Z,8.80
2023-02-01T15:25:26.261Z,6.03
2023-02-01T15:27:56.007Z,5.77
2023-02-01T15:30:27.448Z,7.30
2023-02-01T15:33:07.896Z,9.00
2023-02-01T15:35:44.187Z,7.23
2023-02-01T15:38:31.763Z,10.87
2023-02-01T15:41:01.525Z,10.37
2023-02-01T15:43:31.243Z,7.77
2023-02-01T15:46:02.490Z,11.47
2023-02-01T15:48:35.283Z,12.40
2023-02-01T15:51:04.219Z,6.00
2023-02-01T15:53:33.853Z,7.93
2023-02-01T15:56:03.856Z,7.40
2023-02-01T15:58:34.441Z,6.77
2023-02-01T16:01:07.759Z,7.30
2023-02-01T16:03:38.146Z,10.40
2023-02-01T16:06:07.763Z,7.97
2023-02-01T16:08:38.023Z,6.33
2023-02-01T16:11:31.153Z,10.87
2023-02-01T16:13:59.680Z,11.80
2023-02-01T16:16:30.341Z,9.20
2023-02-01T16:18:58.796Z,11.50
2023-02-01T16:21:27.151Z,7.87
2023-02-01T16:23:56.259Z,6.67
2023-02-01T16:26:24.718Z,6.47
2023-02-01T16:28:53.381Z,7.17
2023-02-01T16:31:23.443Z,6.93
2023-02-01T16:33:55.055Z,8.07
2023-02-01T16:36:32.361Z,6.23
2023-02-01T16:39:01.348Z,8.77
2023-02-01T16:41:29.903Z,7.43
2023-02-01T16:43:58.405Z,9.67
2023-02-01T16:46:27.793Z,9.53
2023-02-01T16:48:59.205Z,6.50
2023-02-01T16:51:28.493Z,7.57
2023-02-01T16:53:57.616Z,10.40
2023-02-01T16:56:27.949Z,12.50
2023-02-01T16:58:57.658Z,9.03
2023-02-01T17:01:26.440Z,7.27
2023-02-01T17:03:55.453Z,10.37
2023-02-01T17:06:26.610Z,7.70
2023-02-01T17:08:56.709Z,7.03
2023-02-01T17:11:25.564Z,9.00
2023-02-01T17:13:53.983Z,9.80
2023-02-01T17:16:25.021Z,9.27
2023-02-01T17:18:56.925Z,8.93
2023-02-01T17:21:27.645Z,7.73
2023-02-01T17:23:56.212Z,7.77
2023-02-01T17:26:24.619Z,7.73
2023-02-01T17:28:53.019Z,8.47
2023-02-01T17:31:21.540Z,8.13
2023-02-01T17:33:50.035Z,12.37
2023-02-01T17:36:19.620Z,11.27
2023-02-01T17:39:03.715Z,13.83
2023-02-01T17:41:33.760Z,8.23
2023-02-01T17:44:03.187Z,10.03
2023-02-01T17:46:32.663Z,11.17
2023-02-01T17:49:01.496Z,12.00
2023-02-01T17:51:30.825Z,11.97
2023-02-01T17:54:00.637Z,14.93
2023-02-01T17:56:30.047Z,15.73
2023-02-01T17:58:59.219Z,10.27
2023-02-01T18:01:28.118Z,14.93
2023-02-01T18:03:56.695Z,10.97
2023-02-01T18:06:26.699Z,10.57
2023-02-01T18:08:55.515Z,12.40
2023-02-01T18:11:25.967Z,15.20
2023-02-01T18:13:55.045Z,15.13
2023-02-01T18:16:24.676Z,15.03
2023-02-01T18:18:53.811Z,9.17
2023-02-01T18:21:23.311Z,10.90
2023-02-01T18:23:51.898Z,10.33
2023-02-01T18:26:20.458Z,13.10
2023-02-01T18:28:50.328Z,10.97
2023-02-01T18:31:23.831Z,12.33
2023-02-01T18:33:52.583Z,11.27
2023-02-01T18:36:21.278Z,12.00
2023-02-01T18:38:49.750Z,10.60
2023-02-01T18:41:20.797Z,12.07
2023-02-01T18:43:50.955Z,12.77
2023-02-01T18:46:19.492Z,8.73
2023-02-01T18:48:47.926Z,11.40
2023-02-01T18:51:19.840Z,8.97
2023-02-01T18:53:48.878Z,12.63
2023-02-01T18:56:18.983Z,12.53
2023-02-01T18:58:47.548Z,9.03
2023-02-01T19:01:19.331Z,13.00
2023-02-01T19:03:54.589Z,11.70
2023-02-01T19:06:31.605Z,11.40
2023-02-01T19:09:00.026Z,11.97
2023-02-01T19:11:28.446Z,14.63
2023-02-01T19:13:56.850Z,12.80
2023-02-01T19:16:26.903Z,12.23
2023-02-01T19:18:55.481Z,12.10
2023-02-01T19:21:23.911Z,13.17
2023-02-01T19:23:52.351Z,11.37
2023-02-01T19:26:20.725Z,13.70
2023-02-01T19:28:49.149Z,12.77
2023-02-01T19:31:17.887Z,13.87
2023-02-01T19:33:47.649Z,14.53
2023-02-01T19:36:16.307Z,11.63
2023-02-01T19:38:44.784Z,14.10
2023-02-01T19:41:13.254Z,10.30
2023-02-01T19:43:41.697Z,15.03
2023-02-01T19:46:10.190Z,14.27
2023-02-01T19:48:38.673Z,14.67
2023-02-01T19:51:09.276Z,14.07
2023-02-01T19:53:37.714Z,11.20
2023-02-01T19:56:06.433Z,11.03
2023-02-01T19:58:35.089Z,13.90
2023-02-01T20:01:02.641Z,12.27
2023-02-01T20:03:31.442Z,12.33
2023-02-01T20:06:00.630Z,12.40
2023-02-01T20:08:30.464Z,17.17
2023-02-01T20:10:58.852Z,9.53
2023-02-01T20:13:27.249Z,16.67
2023-02-01T20:15:59.566Z,12.47
2023-02-01T20:18:28.235Z,12.40
2023-02-01T20:20:58.309Z,16.97
2023-02-01T20:23:26.863Z,10.47
2023-02-01T20:26:02.432Z,14.27
2023-02-01T20:28:30.797Z,11.27
2023-02-01T20:30:59.495Z,13.43
2023-02-01T20:33:29.032Z,15.00
2023-02-01T20:35:57.717Z,12.57
2023-02-01T20:38:26.126Z,12.27
2023-02-01T20:40:54.484Z,11.80
2023-02-01T20:43:24.497Z,12.63
2023-02-01T20:45:52.850Z,10.67
2023-02-01T20:48:21.221Z,18.00
2023-02-01T20:50:49.606Z,13.53
2023-02-01T20:53:26.660Z,14.83
2023-02-01T20:55:56.216Z,11.67
2023-02-01T20:58:26.200Z,9.10
2023-02-01T21:00:54.905Z,17.83
2023-02-01T21:03:23.795Z,10.90
2023-02-01T21:05:53.257Z,13.17
2023-02-01T21:08:22.132Z,10.23
2023-02-01T21:10:57.468Z,13.40
2023-02-01T21:13:27.773Z,12.67
2023-02-01T21:15:56.143Z,10.37
2023-02-01T21:18:24.871Z,8.70
2023-02-01T21:20:53.396Z,10.93
2023-02-01T21:23:22.161Z,11.50
2023-02-01T21:25:50.552Z,16.37
2023-02-01T21:28:19.240Z,11.57
2023-02-01T21:30:49.056Z,13.33
2023-02-01T21:33:17.654Z,16.50
2023-02-01T21:35:46.249Z,11.20
2023-02-01T21:38:14.826Z,9.43
2023-02-01T21:40:43.244Z,15.97
2023-02-01T21:43:11.643Z,11.33
2023-02-01T21:45:46.137Z,14.67
2023-02-01T21:48:20.982Z,11.77
2023-02-01T21:50:49.947Z,8.87
2023-02-01T21:53:18.683Z,10.70
2023-02-01T21:55:47.066Z,14.27
2023-02-01T21:58:15.557Z,14.47
2023-02-01T22:00:46.654Z,10.47
2023-02-01T22:03:15.451Z,12.00
2023-02-01T22:05:50.970Z,9.97
2023-02-01T22:08:20.574Z,13.33
2023-02-01T22:10:48.920Z,10.63
2023-02-01T22:13:17.412Z,14.73
2023-02-01T22:15:45.814Z,13.00
2023-02-01T22:18:14.463Z,9.30
2023-02-01T22:20:42.980Z,10.53
2023-02-01T22:23:12.945Z,10.43
2023-02-01T22:25:41.338Z,12.27
2023-02-01T22:28:30.206Z,12.53
2023-02-01T22:31:02.526Z,14.27
2023-02-01T22:33:31.103Z,10.87
2023-02-01T22:35:59.929Z,13.27
2023-02-01T22:38:31.850Z,12.77
2023-02-01T22:41:01.392Z,9.83
2023-02-01T22:43:30.359Z,13.60
2023-02-01T22:46:01.410Z,9.47
2023-02-01T22:48:30.445Z,10.17
2023-02-01T22:51:00.130Z,10.50
2023-02-01T22:53:31.092Z,11.83
2023-02-01T22:56:01.850Z,11.03
2023-02-01T22:58:30.549Z,13.37
2023-02-01T23:00:58.915Z,14.03
2023-02-01T23:03:27.467Z,11.40
2023-02-01T23:05:59.999Z,14.40
2023-02-01T23:08:30.216Z,15.83
2023-02-01T23:11:01.857Z,10.80
2023-02-01T23:13:30.297Z,11.53
2023-02-01T23:15:59.085Z,13.87
2023-02-01T23:18:28.099Z,8.60
2023-02-01T23:20:56.502Z,11.83
2023-02-01T23:23:25.087Z,12.20
2023-02-01T23:25:54.818Z,13.27
2023-02-01T23:28:23.387Z,9.13
2023-02-01T23:30:52.020Z,10.40
2023-02-01T23:33:22.934Z,11.63
2023-02-01T23:35:58.367Z,15.70
2023-02-01T23:38:27.533Z,12.97
2023-02-01T23:41:00.535Z,11.10
2023-02-01T23:43:46.761Z,9.80
2023-02-01T23:46:16.327Z,12.83
2023-02-01T23:48:45.022Z,13.47
2023-02-01T23:51:14.150Z,10.60
2023-02-01T23:53:44.705Z,10.80
2023-02-01T23:56:19.730Z,13.30
2023-02-01T23:58:48.349Z,17.03
